Time;durP1;ratioP1;P1;durP2;ratioP2;P2;SDS_P1;SDS_P2;PMS_P1;PMS_P2;Temp;Humidity;BMP_temperature;BMP_pressure;BME280_temperature;BME280_humidity;BME280_pressure;Samples;Min_cycle;Max_cycle;Signal;HPM_P1;HPM_P2
2023/01/31 00:00:56;;;;;;;6.27;4.80;;;;;;;3.47;67.53;96956.81;5023424;28;20934;-68
2023/01/31 00:03:21;;;;;;;8.30;5.80;;;;;;;3.36;67.83;96956.06;5016940;28;20272;-68
2023/01/31 00:05:47;;;;;;;6.87;4.53;;;;;;;3.36;67.51;96953.47;5024264;28;20187;-70
2023/01/31 00:08:14;;;;;;;7.43;4.90;;;;;;;3.36;67.88;96966.44;5024346;28;20206;-68
2023/01/31 00:10:40;;;;;;;15.87;5.80;;;;;;;3.38;67.85;96959.50;5022725;28;20219;-69
2023/01/31 00:13:05;;;;;;;11.40;5.97;;;;;;;3.44;67.66;96958.59;5024003;28;20440;-68
2023/01/31 00:15:31;;;;;;;7.60;5.57;;;;;;;3.37;67.81;96952.59;5023759;28;20410;-67
2023/01/31 00:17:56;;;;;;;7.10;4.60;;;;;;;3.33;67.99;96953.47;5026496;28;20254;-67
2023/01/31 00:20:22;;;;;;;8.40;5.60;;;;;;;3.34;68.08;96953.47;5026571;28;20199;-67
2023/01/31 00:22:47;;;;;;;8.07;5.40;;;;;;;3.29;68.13;96952.63;5020389;28;20184;-67
2023/01/31 00:25:12;;;;;;;10.73;5.80;;;;;;;3.36;67.84;96946.53;5026957;28;20774;-68
2023/01/31 00:27:38;;;;;;;6.33;5.17;;;;;;;3.42;67.68;96957.75;5027311;28;20197;-67
2023/01/31 00:30:04;;;;;;;5.93;4.60;;;;;;;3.41;67.15;96959.47;5027101;28;20189;-66
2023/01/31 00:32:29;;;;;;;5.40;4.30;;;;;;;3.49;66.52;96957.69;5027086;28;20236;-69
2023/01/31 00:34:55;;;;;;;5.10;4.60;;;;;;;3.44;66.87;96954.25;5027292;28;21201;-68
2023/01/31 00:37:21;;;;;;;12.30;7.10;;;;;;;3.31;67.23;96958.69;5027349;28;20258;-67
2023/01/31 00:39:46;;;;;;;7.57;5.03;;;;;;;3.20;67.77;96946.66;5026926;28;20259;-68
2023/01/31 00:42:12;;;;;;;6.47;4.50;;;;;;;3.11;67.69;96942.38;5026772;28;20179;-67
2023/01/31 00:44:37;;;;;;;5.17;4.30;;;;;;;3.10;67.77;96938.94;5025858;28;20271;-67
2023/01/31 00:47:03;;;;;;;9.20;5.10;;;;;;;3.18;67.53;96938.88;5026109;28;20838;-68
2023/01/31 00:49:28;;;;;;;6.83;4.07;;;;;;;3.14;67.77;96943.22;5026443;28;20277;-68
2023/01/31 00:51:54;;;;;;;6.03;4.73;;;;;;;3.06;67.67;96945.00;5027572;28;20226;-69
2023/01/31 00:54:19;;;;;;;6.20;4.07;;;;;;;3.12;67.69;96941.53;5027809;28;20211;-67
2023/01/31 00:56:45;;;;;;;6.90;5.40;;;;;;;3.05;67.38;96950.16;5027645;28;20175;-68
2023/01/31 00:59:10;;;;;;;4.90;4.33;;;;;;;3.02;67.72;96943.28;5027416;28;20175;-67
2023/01/31 01:01:37;;;;;;;6.37;4.80;;;;;;;3.01;67.98;96946.75;5027303;28;20210;-67
2023/01/31 01:04:03;;;;;;;8.10;4.30;;;;;;;3.01;67.94;96949.34;5027411;28;20214;-67
2023/01/31 01:06:29;;;;;;;6.93;4.93;;;;;;;3.06;67.53;96955.38;5027600;28;20422;-68
2023/01/31 01:08:56;;;;;;;9.63;4.60;;;;;;;3.02;67.66;96955.38;5027270;28;20454;-68
2023/01/31 01:11:25;;;;;;;7.63;4.50;;;;;;;3.04;67.58;96958.84;5027123;28;20195;-67
2023/01/31 01:13:50;;;;;;;5.80;4.70;;;;;;;2.97;67.50;96964.03;5027217;28;20506;-68
2023/01/31 01:16:31;;;;;;;4.53;4.07;;;;;;;2.95;67.50;96962.31;5025769;28;20525;-69
2023/01/31 01:18:56;;;;;;;7.20;4.43;;;;;;;2.89;67.71;96962.38;5027176;28;20178;-68
2023/01/31 01:21:28;;;;;;;6.30;4.43;;;;;;;2.93;67.61;96966.69;5026717;28;20532;-67
2023/01/31 01:23:59;;;;;;;10.50;4.57;;;;;;;2.94;67.66;96960.63;5010653;28;20247;-68
2023/01/31 01:26:27;;;;;;;7.80;4.73;;;;;;;2.91;67.91;96961.50;5007370;28;20423;-67
2023/01/31 01:28:54;;;;;;;7.03;5.13;;;;;;;2.82;67.79;96958.09;5006534;28;20923;-67
2023/01/31 01:31:21;;;;;;;6.57;4.80;;;;;;;2.79;68.14;96958.97;5006897;28;20470;-69
2023/01/31 01:33:48;;;;;;;8.83;4.30;;;;;;;2.92;67.57;96957.16;5007058;28;20508;-67
2023/01/31 01:36:16;;;;;;;7.73;4.80;;;;;;;2.85;68.17;96961.50;5005958;28;20557;-67
2023/01/31 01:38:43;;;;;;;9.00;4.73;;;;;;;2.73;67.97;96962.44;5007748;28;20410;-68
2023/01/31 01:41:10;;;;;;;8.97;4.60;;;;;;;2.66;68.42;96962.47;5007272;28;20435;-68
2023/01/31 01:43:47;;;;;;;8.03;5.47;;;;;;;2.66;68.58;96963.31;5007096;28;20419;-68
2023/01/31 01:46:19;;;;;;;9.50;4.60;;;;;;;2.56;68.79;96964.22;5007389;28;20411;-68
2023/01/31 01:48:49;;;;;;;11.33;4.73;;;;;;;2.56;69.02;96953.88;5009855;28;21178;-69
2023/01/31 01:51:18;;;;;;;6.50;5.03;;;;;;;2.54;68.54;96953.00;5026135;28;20448;-68
2023/01/31 01:53:48;;;;;;;14.10;4.80;;;;;;;2.54;68.43;96963.38;5025361;28;20884;-68
2023/01/31 01:56:20;;;;;;;9.50;4.90;;;;;;;2.47;69.15;96956.47;5026591;28;20517;-68
2023/01/31 01:59:14;;;;;;;8.47;6.30;;;;;;;2.44;68.89;96949.59;5022400;28;20421;-68
2023/01/31 02:01:40;;;;;;;9.60;5.40;;;;;;;2.49;68.38;96959.94;5022403;28;20950;-67
2023/01/31 02:04:11;;;;;;;6.63;5.20;;;;;;;2.43;68.90;96965.13;5018644;28;20521;-68
2023/01/31 02:06:37;;;;;;;13.13;5.30;;;;;;;2.39;69.16;96961.69;5025006;28;20172;-69
2023/01/31 02:09:06;;;;;;;6.33;4.57;;;;;;;2.39;69.04;96960.84;5024649;28;20469;-70
2023/01/31 02:11:32;;;;;;;8.20;5.57;;;;;;;2.48;68.99;96968.56;5026367;28;20260;-69
2023/01/31 02:14:04;;;;;;;9.50;5.23;;;;;;;2.56;68.34;96974.59;5018134;28;20446;-70
2023/01/31 02:16:30;;;;;;;15.63;6.00;;;;;;;2.55;68.52;96970.25;5026101;28;20182;-68
2023/01/31 02:18:56;;;;;;;18.90;5.40;;;;;;;2.61;68.05;96969.41;5017675;28;20419;-67
2023/01/31 02:21:51;;;;;;;7.43;5.33;;;;;;;2.65;67.55;96965.94;5005919;28;20250;-67
2023/01/31 02:24:38;;;;;;;10.13;5.43;;;;;;;2.63;67.53;96971.13;5022478;28;20800;-68
2023/01/31 02:27:12;;;;;;;8.73;4.70;;;;;;;2.50;68.07;96972.91;5025640;28;20407;-69
2023/01/31 02:29:46;;;;;;;8.23;5.10;;;;;;;2.38;69.10;96972.03;5025598;28;20442;-69
2023/01/31 02:32:38;;;;;;;6.87;4.83;;;;;;;2.38;68.89;96987.59;5025778;28;20409;-67
2023/01/31 02:35:10;;;;;;;10.73;4.30;;;;;;;2.49;68.23;96986.69;5023532;28;20526;-68
2023/01/31 02:37:38;;;;;;;7.80;4.80;;;;;;;2.50;67.97;96978.06;5025761;28;20445;-68
2023/01/31 02:40:28;;;;;;;5.50;4.70;;;;;;;2.56;67.43;96990.13;5024951;28;20561;-68
2023/01/31 02:43:18;;;;;;;5.77;3.93;;;;;;;2.62;67.51;96986.66;5025294;28;20414;-68
2023/01/31 02:46:03;;;;;;;7.23;5.23;;;;;;;2.53;68.02;96983.25;5025448;28;20418;-68
2023/01/31 02:48:51;;;;;;;6.07;4.83;;;;;;;2.53;68.21;96988.41;5025026;28;20864;-68
2023/01/31 02:51:41;;;;;;;6.40;5.43;;;;;;;2.38;68.54;96987.59;5025163;28;20432;-67
2023/01/31 02:56:13;;;;;;;8.73;4.97;;;;;;;2.37;68.69;96984.13;5025378;28;20407;-69
2023/01/31 02:57:08;;;;;;;8.37;5.03;;;;;;;2.33;68.70;96991.03;5025065;28;20424;-67
2023/01/31 02:59:34;;;;;;;10.60;5.00;;;;;;;2.31;68.64;96982.41;5025197;28;20410;-68
2023/01/31 03:02:02;;;;;;;10.40;5.00;;;;;;;2.31;68.73;96981.56;5025155;28;20676;-67
2023/01/31 03:04:32;;;;;;;10.50;4.20;;;;;;;2.37;68.25;96991.06;5025052;28;20410;-67
2023/01/31 03:07:25;;;;;;;6.17;4.93;;;;;;;2.27;68.82;96991.06;5022238;28;20430;-68
2023/01/31 03:10:15;;;;;;;5.73;4.13;;;;;;;2.27;68.10;97008.34;5005155;28;20415;-68
2023/01/31 03:13:19;;;;;;;8.83;4.50;;;;;;;2.32;68.60;97011.78;5009276;28;20926;-68
2023/01/31 03:19:12;;;;;;;7.30;4.33;;;;;;;2.36;67.52;97007.44;5022461;28;20772;-68
2023/01/31 03:22:10;;;;;;;8.60;5.20;;;;;;;2.36;67.66;97015.22;5024933;28;20433;-68
2023/01/31 03:24:38;;;;;;;6.83;4.20;;;;;;;2.24;68.33;97011.78;5005360;28;20466;-68
2023/01/31 03:27:04;;;;;;;13.43;6.20;;;;;;;2.37;67.77;97012.63;5004981;28;20415;-67
2023/01/31 03:29:35;;;;;;;10.00;5.33;;;;;;;2.22;68.17;97023.88;5005147;28;20427;-67
2023/01/31 03:32:19;;;;;;;7.53;5.77;;;;;;;2.21;68.27;97016.97;5005338;28;20844;-67
2023/01/31 03:34:45;;;;;;;7.00;5.27;;;;;;;2.23;67.71;97007.47;5023279;28;20418;-67
2023/01/31 03:37:14;;;;;;;7.53;4.50;;;;;;;2.31;68.06;97013.50;5025161;28;20419;-67
2023/01/31 03:40:01;;;;;;;5.40;4.83;;;;;;;2.29;67.63;97012.66;5024793;28;20520;-67
2023/01/31 03:42:35;;;;;;;7.40;4.57;;;;;;;2.21;68.60;97016.09;5018755;28;20481;-68
2023/01/31 03:45:06;;;;;;;7.03;4.27;;;;;;;2.21;68.49;97009.19;5024057;28;20428;-67
2023/01/31 03:47:42;;;;;;;8.90;4.90;;;;;;;2.22;67.96;97010.94;5023812;28;20460;-66
2023/01/31 03:50:22;;;;;;;12.67;4.90;;;;;;;2.18;68.34;97011.78;5022632;28;20476;-67
2023/01/31 03:53:04;;;;;;;10.60;4.63;;;;;;;2.15;68.66;97016.09;5020693;28;20445;-67
2023/01/31 03:55:34;;;;;;;7.40;4.90;;;;;;;2.23;68.31;97014.38;5021144;28;20422;-68
2023/01/31 03:58:02;;;;;;;5.53;4.27;;;;;;;2.16;67.77;97016.09;5028860;28;20411;-68
2023/01/31 04:00:28;;;;;;;5.10;4.20;;;;;;;2.14;67.93;97016.97;5028320;28;20438;-68
2023/01/31 04:03:06;;;;;;;7.33;4.60;;;;;;;2.29;67.49;97020.41;5025704;28;21178;-68
2023/01/31 04:05:32;;;;;;;8.93;4.87;;;;;;;2.22;67.74;97023.00;5020931;28;20291;-68
2023/01/31 04:07:58;;;;;;;10.87;5.63;;;;;;;2.25;67.31;97030.78;5028546;28;20469;-68
2023/01/31 04:10:25;;;;;;;8.47;4.93;;;;;;;2.35;66.43;97034.22;5028430;28;20436;-67
2023/01/31 04:12:51;;;;;;;7.27;5.97;;;;;;;2.42;66.45;97029.03;5028507;28;21091;-67
2023/01/31 04:15:16;;;;;;;8.30;4.73;;;;;;;2.30;66.86;97040.25;5028766;28;20497;-67
2023/01/31 04:17:42;;;;;;;8.27;4.83;;;;;;;2.28;67.09;97041.13;5027042;28;20440;-69
2023/01/31 04:20:08;;;;;;;6.80;4.50;;;;;;;2.28;67.29;97041.97;5027120;28;20268;-69
2023/01/31 04:22:34;;;;;;;7.53;4.87;;;;;;;2.35;66.54;97052.34;5028915;28;20182;-69
2023/01/31 04:25:00;;;;;;;6.63;4.50;;;;;;;2.40;66.67;97058.38;5028821;28;20422;-68
2023/01/31 04:27:25;;;;;;;6.37;3.93;;;;;;;2.45;66.10;97069.59;5028643;28;20202;-68
2023/01/31 04:29:51;;;;;;;5.97;3.73;;;;;;;2.40;66.90;97064.41;5028058;28;20180;-67
2023/01/31 04:32:16;;;;;;;7.40;3.77;;;;;;;2.29;66.93;97067.03;5024324;28;20215;-69
2023/01/31 04:34:41;;;;;;;8.03;4.30;;;;;;;2.36;66.12;97061.84;5027048;28;20596;-68
2023/01/31 04:37:07;;;;;;;7.43;5.47;;;;;;;2.37;66.31;97072.19;5029165;28;20211;-67
2023/01/31 04:39:32;;;;;;;4.77;3.87;;;;;;;2.52;65.96;97067.00;5027841;28;20190;-68
2023/01/31 04:41:58;;;;;;;8.73;4.47;;;;;;;2.37;66.21;97072.19;5026049;28;20227;-68
2023/01/31 04:44:23;;;;;;;7.20;4.67;;;;;;;2.32;66.54;97074.78;5027847;28;20187;-69
2023/01/31 04:46:48;;;;;;;6.50;4.60;;;;;;;2.27;66.30;97073.94;5027989;28;20500;-68
2023/01/31 04:49:14;;;;;;;4.43;3.83;;;;;;;2.29;66.84;97072.22;5026167;28;20221;-68
2023/01/31 04:51:40;;;;;;;9.10;5.00;;;;;;;2.49;66.46;97071.31;5026738;28;20688;-68
2023/01/31 04:54:06;;;;;;;9.40;4.67;;;;;;;2.41;66.37;97073.03;5027729;28;20189;-67
2023/01/31 04:56:32;;;;;;;7.83;5.20;;;;;;;2.49;66.19;97072.19;5026797;28;20446;-67
2023/01/31 04:58:57;;;;;;;6.80;4.33;;;;;;;2.37;66.76;97079.13;5027519;28;20245;-69
2023/01/31 05:01:23;;;;;;;5.90;4.80;;;;;;;2.34;66.64;97085.16;5026792;28;20306;-67
2023/01/31 05:03:48;;;;;;;6.47;4.10;;;;;;;2.40;66.96;97073.94;5025197;28;20187;-68
2023/01/31 05:06:14;;;;;;;8.00;5.40;;;;;;;2.44;66.16;97075.66;5027964;28;20453;-68
2023/01/31 05:08:40;;;;;;;11.67;5.57;;;;;;;2.37;66.77;97076.53;5027446;28;20199;-68
2023/01/31 05:11:06;;;;;;;12.30;5.20;;;;;;;2.47;66.45;97073.06;5026961;28;20716;-69
2023/01/31 05:13:33;;;;;;;6.80;5.50;;;;;;;2.42;66.62;97074.78;5027594;28;20198;-69
2023/01/31 05:15:58;;;;;;;12.27;5.97;;;;;;;2.39;66.77;97073.06;5027265;28;20694;-69
2023/01/31 05:18:24;;;;;;;7.40;5.30;;;;;;;2.41;66.77;97086.88;5019696;28;20437;-68
2023/01/31 05:20:50;;;;;;;7.43;4.93;;;;;;;2.36;66.83;97088.59;5026676;28;20570;-69
2023/01/31 05:23:18;;;;;;;8.90;5.77;;;;;;;2.38;66.12;97096.38;5026969;28;20186;-67
2023/01/31 05:25:44;;;;;;;9.47;5.50;;;;;;;2.26;66.73;97099.81;5024452;28;20206;-68
2023/01/31 05:28:10;;;;;;;10.93;5.33;;;;;;;2.42;66.48;97098.09;5025572;28;20502;-67
2023/01/31 05:30:36;;;;;;;6.80;5.47;;;;;;;2.38;66.31;97088.59;5015473;28;20210;-67
2023/01/31 05:33:02;;;;;;;7.00;4.83;;;;;;;2.34;66.75;97092.94;5013567;28;20910;-68
2023/01/31 05:35:27;;;;;;;12.60;5.93;;;;;;;2.45;65.69;97090.31;5024708;28;20183;-69
2023/01/31 05:37:54;;;;;;;15.03;5.90;;;;;;;2.34;66.23;97077.41;5026738;28;20175;-69
2023/01/31 05:40:20;;;;;;;5.27;4.40;;;;;;;2.25;66.05;97080.84;5026285;28;20944;-70
2023/01/31 05:42:56;;;;;;;6.30;5.10;;;;;;;2.23;66.04;97076.53;5024128;28;20465;-68
2023/01/31 05:45:22;;;;;;;8.23;5.50;;;;;;;2.28;66.60;97074.78;5026828;28;20950;-68
2023/01/31 05:47:48;;;;;;;10.60;6.20;;;;;;;2.22;66.20;97073.09;5025908;28;20474;-68
2023/01/31 05:50:13;;;;;;;8.60;5.90;;;;;;;2.13;66.26;97086.03;5026389;28;20513;-68
2023/01/31 05:52:39;;;;;;;5.40;4.90;;;;;;;2.21;66.55;97088.63;5025496;28;20973;-68
2023/01/31 05:55:05;;;;;;;8.30;5.07;;;;;;;2.16;66.01;97086.03;5026097;28;20186;-69
2023/01/31 05:57:30;;;;;;;7.90;5.00;;;;;;;2.14;66.36;97095.50;5026457;28;20180;-67
2023/01/31 05:59:56;;;;;;;13.73;6.47;;;;;;;2.23;65.80;97092.06;5023952;28;20504;-68
2023/01/31 06:02:21;;;;;;;6.60;5.40;;;;;;;2.06;66.55;97095.50;5015375;28;20190;-68
2023/01/31 06:04:48;;;;;;;8.17;4.07;;;;;;;1.92;66.75;97098.97;5022432;28;20206;-69
2023/01/31 06:07:13;;;;;;;22.50;6.27;;;;;;;1.98;66.45;97101.53;5021388;28;20552;-67
2023/01/31 06:09:40;;;;;;;7.57;5.60;;;;;;;1.99;66.68;97098.09;5020483;28;20442;-69
2023/01/31 06:12:11;;;;;;;8.80;5.00;;;;;;;1.98;66.18;97088.59;5017951;28;20312;-69
2023/01/31 06:14:37;;;;;;;8.67;5.70;;;;;;;1.85;67.12;97100.66;5019631;28;20953;-69
2023/01/31 06:17:03;;;;;;;16.27;6.20;;;;;;;1.90;66.41;97114.47;5018146;28;20431;-67
2023/01/31 06:19:28;;;;;;;13.77;5.87;;;;;;;1.99;66.42;97105.88;5018577;28;20195;-68
2023/01/31 06:21:53;;;;;;;12.47;5.93;;;;;;;2.07;66.08;97105.00;5009564;28;20454;-69
2023/01/31 06:24:20;;;;;;;11.20;6.07;;;;;;;2.01;66.74;97106.72;5018649;28;20179;-68
2023/01/31 06:26:45;;;;;;;8.47;6.00;;;;;;;1.97;66.55;97116.22;5009642;28;20183;-68
2023/01/31 06:29:10;;;;;;;11.83;5.90;;;;;;;1.93;66.89;97116.19;5015509;28;20524;-66
2023/01/31 06:31:36;;;;;;;9.40;6.07;;;;;;;1.91;67.58;97116.19;5015644;28;20425;-69
2023/01/31 06:34:02;;;;;;;13.17;8.90;;;;;;;1.99;67.22;97118.81;5017356;28;20513;-68
2023/01/31 06:36:30;;;;;;;10.27;6.63;;;;;;;2.01;67.42;97106.72;5010632;28;20179;-68
2023/01/31 06:38:55;;;;;;;8.90;6.33;;;;;;;2.04;67.56;97099.81;5011495;28;20497;-68
2023/01/31 06:41:20;;;;;;;13.43;7.23;;;;;;;1.95;67.68;97104.97;5009111;28;21147;-68
2023/01/31 06:43:46;;;;;;;8.90;5.70;;;;;;;2.05;66.83;97108.44;5020142;28;20179;-68
2023/01/31 06:46:11;;;;;;;11.37;5.73;;;;;;;2.32;66.27;97112.78;5009749;28;20374;-69
2023/01/31 06:48:37;;;;;;;8.07;5.90;;;;;;;2.30;65.66;97104.16;5010126;28;20196;-68
2023/01/31 06:51:02;;;;;;;10.13;5.23;;;;;;;2.33;65.86;97112.75;5012688;28;20191;-68
2023/01/31 06:53:28;;;;;;;10.60;6.10;;;;;;;2.36;66.33;97118.81;5020142;28;20177;-68
2023/01/31 06:55:53;;;;;;;11.70;7.20;;;;;;;2.46;65.11;97117.97;5010763;28;20246;-68
2023/01/31 06:58:18;;;;;;;7.47;5.90;;;;;;;2.32;65.78;97117.97;5009819;28;20167;-67
2023/01/31 07:00:44;;;;;;;10.60;7.10;;;;;;;2.49;65.65;97123.13;5010956;28;20226;-67
2023/01/31 07:03:09;;;;;;;9.87;5.70;;;;;;;2.45;65.60;97113.63;5017895;28;20191;-68
2023/01/31 07:05:35;;;;;;;10.13;5.60;;;;;;;2.49;65.27;97115.38;5021878;28;20232;-68
2023/01/31 07:08:00;;;;;;;84.03;17.20;;;;;;;2.50;65.09;97117.97;5023022;28;20748;-69
2023/01/31 07:10:26;;;;;;;79.33;12.20;;;;;;;2.41;66.00;97115.38;5018652;28;20731;-68
2023/01/31 07:12:51;;;;;;;22.73;8.10;;;;;;;2.38;65.75;97117.09;5016537;28;20179;-68
2023/01/31 07:15:17;;;;;;;8.13;5.83;;;;;;;2.41;65.05;97110.19;5019031;28;20662;-68
2023/01/31 07:17:43;;;;;;;10.50;6.50;;;;;;;2.46;65.71;97113.66;5012964;28;20934;-68
2023/01/31 07:20:09;;;;;;;8.20;5.60;;;;;;;2.43;65.75;97105.84;5021692;28;20224;-69
2023/01/31 07:22:34;;;;;;;10.80;6.80;;;;;;;2.46;64.90;97105.00;5021999;28;20410;-69
2023/01/31 07:25:00;;;;;;;8.83;6.20;;;;;;;2.43;65.90;97105.00;5017976;28;20438;-68
2023/01/31 07:27:26;;;;;;;8.63;6.00;;;;;;;2.32;65.61;97110.19;5016849;28;20195;-68
2023/01/31 07:29:51;;;;;;;11.13;6.47;;;;;;;2.44;65.85;97097.22;5026259;28;20175;-69
2023/01/31 07:32:17;;;;;;;10.10;6.87;;;;;;;2.36;65.75;97100.69;5014853;28;21130;-68
2023/01/31 07:34:42;;;;;;;10.73;6.83;;;;;;;2.37;65.38;97095.50;5022738;28;20175;-68
2023/01/31 07:37:07;;;;;;;20.20;7.03;;;;;;;2.46;65.68;97098.09;5029122;28;20549;-67
2023/01/31 07:39:33;;;;;;;15.13;7.07;;;;;;;2.73;64.50;97106.69;5028697;28;20228;-68
2023/01/31 07:41:58;;;;;;;38.63;8.23;;;;;;;2.74;64.43;97098.03;5028658;28;20202;-66
2023/01/31 07:44:24;;;;;;;47.60;10.00;;;;;;;2.83;63.34;97099.75;5028852;28;20203;-67
2023/01/31 07:46:50;;;;;;;10.43;7.17;;;;;;;3.99;61.35;97098.38;5028608;28;20918;-69
2023/01/31 07:49:16;;;;;;;13.40;6.53;;;;;;;5.83;55.31;97091.25;5023199;28;20195;-69
2023/01/31 07:51:42;;;;;;;18.63;7.07;;;;;;;6.84;51.44;97088.81;5020098;28;20518;-67
2023/01/31 07:54:10;;;;;;;9.33;6.90;;;;;;;7.42;48.78;97087.72;5023495;28;20187;-68
2023/01/31 07:56:35;;;;;;;10.60;6.90;;;;;;;8.28;46.57;97072.72;5026206;28;20180;-70
2023/01/31 07:59:01;;;;;;;14.63;7.20;;;;;;;9.10;44.37;97084.63;5025687;28;20495;-68
2023/01/31 08:04:14;;;;;;;8.90;6.70;;;;;;;9.69;42.39;97083.84;5022950;28;20246;-68
2023/01/31 08:06:42;;;;;;;8.80;7.33;;;;;;;10.55;40.43;97083.81;5022455;28;20429;-68
2023/01/31 08:09:08;;;;;;;10.13;7.20;;;;;;;10.59;39.76;97085.44;5019424;28;20550;-68
2023/01/31 08:11:33;;;;;;;9.20;8.00;;;;;;;10.40;40.01;97080.88;5008197;28;20522;-68
2023/01/31 08:13:58;;;;;;;13.50;9.23;;;;;;;10.89;39.50;97090.59;5008114;28;21134;-68
2023/01/31 08:16:24;;;;;;;8.47;7.60;;;;;;;10.88;39.31;97090.63;5008729;28;20183;-68
2023/01/31 08:18:51;;;;;;;9.30;7.90;;;;;;;10.83;39.12;97093.41;5008118;28;20172;-67
2023/01/31 08:21:17;;;;;;;15.57;10.23;;;;;;;11.45;37.98;97089.50;5007371;28;20612;-69
2023/01/31 08:23:43;;;;;;;11.20;8.57;;;;;;;11.85;36.73;97088.00;5022768;28;20458;-68
2023/01/31 08:26:14;;;;;;;11.00;7.40;;;;;;;12.12;36.38;97093.16;5027726;28;20446;-67
2023/01/31 08:28:40;;;;;;;10.17;7.90;;;;;;;12.25;36.26;97091.78;5027469;28;20286;-69
2023/01/31 08:31:09;;;;;;;10.00;7.93;;;;;;;12.25;36.05;97099.66;5024824;28;20644;-67
2023/01/31 08:33:35;;;;;;;13.60;7.83;;;;;;;12.44;35.68;97094.53;5026190;28;20232;-70
2023/01/31 08:36:30;;;;;;;9.27;7.50;;;;;;;12.71;34.85;97100.47;5016345;28;20538;-69
2023/01/31 08:38:56;;;;;;;10.33;7.70;;;;;;;12.84;34.95;97098.16;5023921;28;20441;-68
2023/01/31 08:41:23;;;;;;;10.13;8.00;;;;;;;13.27;34.31;97091.94;5022902;28;20437;-69
2023/01/31 08:43:48;;;;;;;9.50;8.23;;;;;;;12.85;34.86;97078.78;5025183;28;20601;-69
2023/01/31 08:46:14;;;;;;;10.80;8.10;;;;;;;13.32;34.77;97095.25;5018724;28;20433;-67
2023/01/31 08:48:41;;;;;;;11.43;9.40;;;;;;;13.71;32.79;97083.00;5022373;28;20953;-68
2023/01/31 08:51:09;;;;;;;12.27;8.70;;;;;;;13.89;32.47;97079.50;5008773;28;20227;-68
2023/01/31 08:53:39;;;;;;;11.93;8.83;;;;;;;13.51;32.50;97075.97;5018406;28;20447;-68
2023/01/31 08:56:07;;;;;;;22.23;9.97;;;;;;;13.83;32.88;97084.22;5020330;28;20493;-69
2023/01/31 08:58:34;;;;;;;19.83;10.30;;;;;;;13.88;32.18;97080.44;5019702;28;20431;-67
2023/01/31 09:01:08;;;;;;;13.80;8.93;;;;;;;13.79;32.44;97082.63;5021799;28;20909;-70
2023/01/31 09:03:33;;;;;;;9.67;7.70;;;;;;;14.21;31.43;97087.69;5018987;28;20441;-68
2023/01/31 09:06:05;;;;;;;25.03;10.17;;;;;;;14.13;31.94;97089.84;5026369;28;20418;-69
2023/01/31 09:08:30;;;;;;;22.77;9.80;;;;;;;14.17;31.98;97097.56;5023864;28;20208;-70
2023/01/31 09:10:59;;;;;;;76.60;15.40;;;;;;;14.70;31.16;97100.38;5020298;28;20963;-69
2023/01/31 09:13:26;;;;;;;14.33;8.40;;;;;;;14.43;31.33;97100.72;5018531;28;21012;-70
2023/01/31 09:15:59;;;;;;;10.40;8.10;;;;;;;14.57;30.82;97098.31;5018740;28;20443;-67
2023/01/31 09:18:25;;;;;;;12.07;8.23;;;;;;;14.44;31.69;97094.53;5013503;28;20441;-67
2023/01/31 09:20:51;;;;;;;9.20;8.20;;;;;;;14.31;31.31;97098.66;5011984;28;20455;-68
2023/01/31 09:23:18;;;;;;;11.60;9.00;;;;;;;13.67;32.82;97095.44;5023784;28;20969;-68
2023/01/31 09:25:43;;;;;;;10.33;7.73;;;;;;;12.63;34.93;97105.16;5024127;28;20691;-68
2023/01/31 09:28:09;;;;;;;12.57;7.67;;;;;;;10.83;38.06;97110.94;5022933;28;20478;-68
2023/01/31 09:30:34;;;;;;;14.77;8.37;;;;;;;9.79;41.37;97109.78;5018903;28;20253;-68
2023/01/31 09:33:00;;;;;;;10.23;7.40;;;;;;;9.16;42.36;97111.56;5024962;28;20530;-68
2023/01/31 09:35:27;;;;;;;9.30;6.90;;;;;;;8.73;43.24;97110.06;5018983;28;20172;-69
2023/01/31 09:37:52;;;;;;;9.73;8.77;;;;;;;8.36;44.38;97123.97;5020138;28;20184;-69
2023/01/31 09:40:23;;;;;;;11.20;8.57;;;;;;;8.15;45.38;97120.09;5018591;28;20461;-68
2023/01/31 09:42:51;;;;;;;8.13;7.33;;;;;;;8.04;45.70;97120.38;5023579;28;20231;-67
2023/01/31 09:45:29;;;;;;;9.50;7.23;;;;;;;7.95;46.48;97129.25;5024556;28;20444;-68
2023/01/31 09:47:56;;;;;;;8.03;6.93;;;;;;;7.90;46.31;97125.03;5015391;28;20468;-68
2023/01/31 09:50:39;;;;;;;10.30;7.50;;;;;;;7.97;45.98;97135.31;5021510;28;20890;-68
2023/01/31 09:53:05;;;;;;;9.93;7.90;;;;;;;7.66;47.05;97132.50;5018473;28;20435;-68
2023/01/31 09:56:04;;;;;;;44.73;10.10;;;;;;;7.68;47.19;97127.22;5023205;28;21016;-68
2023/01/31 09:58:58;;;;;;;31.10;9.27;;;;;;;7.55;47.81;97119.66;5026971;28;20730;-68
2023/01/31 10:01:42;;;;;;;82.37;14.80;;;;;;;7.79;47.24;97123.50;5022522;28;20446;-67
2023/01/31 10:04:35;;;;;;;13.73;7.47;;;;;;;8.33;46.05;97118.84;5016139;28;20465;-68
2023/01/31 10:07:10;;;;;;;80.47;13.57;;;;;;;8.66;45.23;97102.34;5019501;28;20395;-68
2023/01/31 10:09:54;;;;;;;53.43;10.17;;;;;;;8.92;43.83;97102.59;5023322;28;20415;-68
2023/01/31 10:12:31;;;;;;;48.07;9.17;;;;;;;8.86;43.73;97095.78;5006398;28;21021;-67
2023/01/31 10:15:04;;;;;;;14.53;5.50;;;;;;;8.63;43.37;97101.59;5006079;28;20493;-67
2023/01/31 10:17:33;;;;;;;27.13;7.73;;;;;;;8.37;43.88;97099.56;5009019;28;20910;-69
2023/01/31 10:20:25;;;;;;;8.37;4.77;;;;;;;8.22;44.18;97106.88;5016428;28;20443;-68
2023/01/31 10:23:03;;;;;;;11.50;6.30;;;;;;;8.11;45.68;97098.41;5018505;28;20838;-69
2023/01/31 10:25:36;;;;;;;17.23;5.43;;;;;;;7.87;45.85;97104.22;5022275;28;21139;-68
2023/01/31 10:28:27;;;;;;;8.97;5.47;;;;;;;7.81;45.35;97106.03;5024087;28;20501;-69
2023/01/31 10:31:02;;;;;;;6.90;5.57;;;;;;;7.42;46.34;97102.53;5023019;28;20454;-69
2023/01/31 10:33:42;;;;;;;7.53;5.10;;;;;;;7.40;45.95;97099.94;5016555;28;20438;-68
2023/01/31 10:36:32;;;;;;;8.23;4.70;;;;;;;7.33;46.04;97098.34;5017989;28;20915;-70
2023/01/31 10:39:22;;;;;;;6.90;4.80;;;;;;;7.10;46.74;97088.34;5022663;28;20458;-69
2023/01/31 10:42:17;;;;;;;11.77;4.70;;;;;;;6.97;47.49;97072.06;5012951;28;20561;-68
2023/01/31 10:45:00;;;;;;;6.27;4.23;;;;;;;7.06;46.62;97057.09;5020788;28;20477;-68
2023/01/31 10:47:36;;;;;;;6.93;4.30;;;;;;;6.91;46.76;97056.50;5016129;28;20869;-69
2023/01/31 10:50:32;;;;;;;9.63;4.87;;;;;;;6.95;46.70;97055.56;5005017;28;20438;-68
2023/01/31 10:53:16;;;;;;;5.87;4.60;;;;;;;6.93;47.33;97067.78;5004506;28;20795;-69
2023/01/31 10:56:10;;;;;;;7.23;4.70;;;;;;;6.81;47.05;97054.97;5018982;28;20453;-69
2023/01/31 10:58:36;;;;;;;8.30;5.20;;;;;;;6.76;47.69;97048.97;5016489;28;20514;-68
2023/01/31 11:01:07;;;;;;;22.90;6.43;;;;;;;6.65;48.27;97045.69;5022147;28;20457;-67
2023/01/31 11:03:33;;;;;;;16.90;5.30;;;;;;;6.59;48.07;97057.13;5020030;28;20443;-68
2023/01/31 11:05:58;;;;;;;11.83;5.57;;;;;;;6.64;48.29;97052.69;5019779;28;20452;-69
2023/01/31 11:08:33;;;;;;;19.80;7.50;;;;;;;6.57;48.74;97041.47;5019829;28;20446;-68
2023/01/31 11:11:07;;;;;;;16.53;6.80;;;;;;;6.48;49.22;97033.81;5016458;28;20214;-69
2023/01/31 11:13:32;;;;;;;6.90;5.30;;;;;;;6.57;49.31;97030.19;5020868;28;20434;-69
2023/01/31 11:16:00;;;;;;;10.00;5.00;;;;;;;6.64;49.51;97026.59;5017165;28;20434;-69
2023/01/31 11:18:30;;;;;;;5.63;4.00;;;;;;;6.50;49.53;97020.78;5019393;28;20272;-68
2023/01/31 11:20:59;;;;;;;9.00;5.70;;;;;;;6.63;49.53;97006.59;5016889;28;20454;-69
2023/01/31 11:23:29;;;;;;;16.80;6.20;;;;;;;6.51;49.75;97012.03;5012087;28;20430;-69
2023/01/31 11:25:58;;;;;;;10.23;5.80;;;;;;;6.53;49.85;96995.47;5024989;28;20500;-68
2023/01/31 11:28:27;;;;;;;10.53;5.43;;;;;;;6.61;50.04;96992.72;5025067;28;20466;-69
2023/01/31 11:30:54;;;;;;;37.80;9.27;;;;;;;6.76;49.24;96999.44;5004953;28;20435;-69
2023/01/31 11:33:39;;;;;;;16.00;6.00;;;;;;;6.65;49.06;96996.16;5005589;28;21119;-70
2023/01/31 11:36:15;;;;;;;19.80;5.93;;;;;;;6.61;50.01;96999.69;5021909;28;20421;-70
2023/01/31 11:38:41;;;;;;;23.13;6.40;;;;;;;6.51;49.20;96997.25;5043219;28;21318;-69
2023/01/31 11:41:28;;;;;;;21.87;7.07;;;;;;;6.95;48.43;96997.31;5040624;28;20430;-68
2023/01/31 11:44:12;;;;;;;12.20;5.27;;;;;;;7.26;47.50;97007.13;5017643;28;20441;-68
2023/01/31 11:46:43;;;;;;;16.13;5.47;;;;;;;7.62;46.49;96998.47;5016523;28;20532;-69
2023/01/31 11:49:12;;;;;;;17.13;5.40;;;;;;;7.90;45.92;96987.38;5015232;28;20494;-69
2023/01/31 11:51:39;;;;;;;29.47;7.37;;;;;;;7.85;45.59;96986.66;5014749;28;21030;-69
2023/01/31 11:54:05;;;;;;;17.63;5.03;;;;;;;8.03;45.52;96970.53;5015182;28;20453;-69
2023/01/31 11:56:36;;;;;;;5.37;4.33;;;;;;;8.05;45.57;96963.50;5018801;28;20997;-69